EST,Max TemperatureF,Mean TemperatureF,Min TemperatureF,Max Dew PointF,MeanDew PointF,Min DewpointF,Max Humidity, Mean Humidity, Min Humidity, Max Sea Level PressureIn, Mean Sea Level PressureIn, Min Sea Level PressureIn, Max VisibilityMiles, Mean VisibilityMiles, Min VisibilityMiles, Max Wind SpeedMPH, Mean Wind SpeedMPH, Max Gust SpeedMPH,PrecipitationIn, CloudCover, Events, WindDirDegrees
2014-2-1,46,40,33,30,21,16,75,50,34,30.19,30.12,30.04,10,10,10,15,8,22,0.00,0,,188
2014-2-2,46,44,42,45,38,23,100,80,46,30.07,30.03,29.99,10,9,0,22,15,30,0.03,6,Fog-Rain,264
2014-2-3,44,36,28,45,34,28,100,100,100,30.22,30.04,29.86,10,2,0,15,7,28,1.49,8,Fog-Rain-Snow,25
2014-2-4,30,28,26,30,28,27,100,100,100,30.29,30.18,30.01,0,0,0,12,4,16,0.10,8,Fog-Snow,139
2014-2-5,42,30,17,43,31,16,100,96,81,30.01,29.83,29.70,10,6,0,38,15,46,0.06,8,Fog-Rain-Snow,252
2014-2-6,24,19,14,18,15,10,100,87,74,30.20,30.13,30.02,10,10,7,22,14,36,0.00,2,Snow,287
2014-2-7,28,21,14,18,15,10,100,84,64,30.21,30.17,30.13,10,9,3,17,13,22,0.00,3,,278
2014-2-8,26,22,19,27,22,9,100,89,58,30.19,30.11,30.04,10,8,0,18,10,28,0.00,8,Snow,253
2014-2-9,30,26,21,30,28,19,100,99,86,30.05,29.97,29.88,10,7,0,28,17,36,0.00,8,Fog-Snow,263
2014-2-10,23,18,10,19,12,7,100,77,54,30.13,30.03,29.94,10,10,10,22,14,30,0.00,4,,287
2014-2-11,28,18,8,10,4,-2,85,60,33,30.25,30.17,30.11,10,10,10,12,6,,0.00,0,,294
2014-2-12,17,12,8,16,8,3,100,84,68,30.23,30.12,29.87,10,7,0,15,8,21,0.04,4,Snow,97
2014-2-13,28,22,17,27,23,16,100,99,86,29.87,29.55,29.41,7,1,0,29,18,40,0.09,7,Snow,6
2014-2-14,37,29,21,30,19,12,100,67,38,29.70,29.61,29.48,10,5,0,33,23,46,0.00,3,Snow,260
2014-2-15,32,22,12,32,19,9,100,89,68,29.89,29.67,29.53,10,4,0,33,15,46,0.04,6,Snow,282
2014-2-16,24,17,10,23,15,9,100,90,80,30.05,29.92,29.86,10,8,3,29,16,45,0.00,7,Snow,279
2014-2-17,26,19,12,21,14,10,100,79,55,30.23,30.13,30.01,10,9,0,20,9,29,0.02,4,Snow,136
2014-2-18,44,32,21,28,20,10,100,61,27,30.10,30.04,29.97,10,8,0,30,17,43,0.00,2,Snow,250
2014-2-19,50,44,37,45,32,21,100,66,39,30.13,29.95,29.82,10,8,0,32,17,47,0.09,4,Rain-Thunderstorm,255
2014-2-20,51,44,37,46,28,10,93,62,31,30.20,30.11,29.97,10,10,7,22,11,31,0.00,2,,176
2014-2-21,50,42,33,50,32,16,100,72,34,29.99,29.88,29.78,10,8,0,31,19,44,0.70,3,Rain-Snow,244
2014-2-22,48,40,32,18,15,12,52,38,27,30.13,30.08,29.97,10,10,7,21,15,32,0.00,0,,258
2014-2-23,53,43,33,30,22,18,87,42,30,30.07,29.99,29.93,10,10,7,22,16,30,0.00,2,Snow,261
2014-2-24,32,26,19,32,11,1,100,58,31,30.04,29.97,29.92,10,10,4,28,19,39,0.00,1,Snow,281
2014-2-25,28,24,19,16,11,7,86,66,54,30.00,29.93,29.87,10,10,10,22,16,30,0.00,5,Snow,279
2014-2-26,23,18,12,16,9,0,100,69,39,29.86,29.76,29.70,10,9,1,23,16,31,0.00,4,Snow,282
2014-2-27,24,16,8,5,1,-6,79,55,34,29.88,29.66,29.55,10,10,10,33,21,51,0.00,0,,281
2014-2-28,26,16,6,9,3,-6,67,56,43,30.16,30.07,29.89,10,10,10,14,5,,0.00,0,,176